createdAt,value
2022-10-13T00:05:55.603Z,8.20
2022-10-13T00:16:25.187Z,9.80
2022-10-13T00:26:54.184Z,12.10
2022-10-13T00:37:21.648Z,10.30
2022-10-13T00:47:52.914Z,10.90
2022-10-13T00:58:23.205Z,9.00
2022-10-13T01:08:50.915Z,10.10
2022-10-13T01:19:37.893Z,10.80
2022-10-13T01:30:16.053Z,8.80
2022-10-13T01:40:49.082Z,8.10
2022-10-13T01:51:20.482Z,10.40
2022-10-13T02:02:02.051Z,9.60
2022-10-13T02:12:32.472Z,9.10
2022-10-13T02:23:04.066Z,10.10
2022-10-13T02:33:31.966Z,8.40
2022-10-13T02:43:59.447Z,9.90
2022-10-13T02:54:27.070Z,9.80
2022-10-13T03:04:54.627Z,12.20
2022-10-13T03:15:22.095Z,9.10
2022-10-13T03:25:49.611Z,10.30
2022-10-13T03:36:17.282Z,13.00
2022-10-13T03:46:44.872Z,12.10
2022-10-13T03:57:12.393Z,11.20
2022-10-13T04:07:40.002Z,12.70
2022-10-13T04:18:09.500Z,12.20
2022-10-13T04:28:37.680Z,12.70
2022-10-13T04:39:06.769Z,13.30
2022-10-13T04:49:34.267Z,10.80
2022-10-13T05:00:01.844Z,12.10
2022-10-13T05:10:34.536Z,10.60
2022-10-13T05:21:09.583Z,10.90
2022-10-13T05:31:38.348Z,11.20
2022-10-13T05:42:06.225Z,14.10
2022-10-13T05:52:35.239Z,13.70
2022-10-13T06:03:08.761Z,12.90
2022-10-13T06:13:36.641Z,20.10
2022-10-13T06:24:04.141Z,18.00
2022-10-13T06:34:31.781Z,16.30
2022-10-13T06:44:59.452Z,17.10
2022-10-13T06:55:27.004Z,21.30
2022-10-13T07:05:54.920Z,25.70
2022-10-13T07:16:23.169Z,27.20
2022-10-13T07:26:50.751Z,24.90
2022-10-13T07:37:18.758Z,22.30
2022-10-13T07:47:46.546Z,22.70
2022-10-13T07:58:14.186Z,18.70
2022-10-13T08:08:42.011Z,21.70
2022-10-13T08:19:09.716Z,20.40
2022-10-13T08:29:37.754Z,18.70
2022-10-13T08:40:05.883Z,20.10
2022-10-13T08:50:36.933Z,17.30
2022-10-13T09:01:12.911Z,16.60
2022-10-13T09:11:43.571Z,17.20
2022-10-13T09:22:24.722Z,13.90
2022-10-13T09:32:52.364Z,15.10
2022-10-13T09:43:32.488Z,14.50
2022-10-13T09:54:00.074Z,15.70
2022-10-13T10:04:35.266Z,11.10
2022-10-13T10:15:02.799Z,13.40
2022-10-13T10:25:35.491Z,12.00
2022-10-13T10:36:16.776Z,11.30
2022-10-13T10:46:49.018Z,12.10
2022-10-13T10:57:22.998Z,9.80
2022-10-13T11:08:01.380Z,9.00
2022-10-13T11:19:09.042Z,9.30
2022-10-13T11:29:57.406Z,10.60
2022-10-13T11:40:32.865Z,8.50
2022-10-13T11:51:15.451Z,8.80
2022-10-13T12:01:53.821Z,9.90
2022-10-13T12:12:23.083Z,14.40
2022-10-13T12:22:52.492Z,10.50
2022-10-13T12:33:27.988Z,10.70
2022-10-13T12:43:56.615Z,11.00
2022-10-13T12:54:28.713Z,10.50
2022-10-13T13:04:56.259Z,11.40
2022-10-13T13:15:38.685Z,12.00
2022-10-13T13:26:13.406Z,12.40
2022-10-13T13:36:41.836Z,11.90
2022-10-13T13:47:17.319Z,13.70
2022-10-13T13:57:46.397Z,14.00
2022-10-13T14:08:13.934Z,16.10
2022-10-13T14:18:42.075Z,17.20
2022-10-13T14:29:09.656Z,14.80
2022-10-13T14:50:03.313Z,11.20
2022-10-13T15:11:02.989Z,11.20
2022-10-13T15:21:30.627Z,11.00
2022-10-13T15:42:35.594Z,12.30
2022-10-13T16:03:30.025Z,11.80
2022-10-13T16:13:57.762Z,12.30
2022-10-13T16:24:25.474Z,11.40
2022-10-13T16:34:53.114Z,10.40
2022-10-13T16:45:41.195Z,10.80
2022-10-13T16:56:10.960Z,8.20
2022-10-13T17:06:39.635Z,10.30
2022-10-13T17:17:07.757Z,11.30
2022-10-13T17:27:37.518Z,10.00
2022-10-13T17:38:05.028Z,9.40
2022-10-13T17:48:32.741Z,9.50
2022-10-13T17:59:00.418Z,8.00
2022-10-13T18:09:28.045Z,10.70
2022-10-13T18:19:55.814Z,9.80
2022-10-13T18:30:23.481Z,11.40
2022-10-13T18:40:51.098Z,11.60
2022-10-13T18:51:20.408Z,14.40
2022-10-13T19:01:48.811Z,14.70
2022-10-13T19:12:16.488Z,14.80
2022-10-13T19:22:44.027Z,21.60
2022-10-13T19:33:13.605Z,18.60
2022-10-13T19:43:41.165Z,13.00
2022-10-13T19:54:09.492Z,18.90
2022-10-13T20:04:39.523Z,19.50
2022-10-13T20:15:08.243Z,48.20
2022-10-13T20:25:39.068Z,28.60
2022-10-13T20:36:08.918Z,31.10
2022-10-13T20:46:36.721Z,24.30
2022-10-13T20:57:04.300Z,24.40
2022-10-13T21:07:31.881Z,25.50
2022-10-13T21:17:59.510Z,28.30
2022-10-13T21:28:27.251Z,31.90
2022-10-13T21:38:56.287Z,30.50
2022-10-13T21:49:24.294Z,29.00
2022-10-13T21:59:52.041Z,31.50
2022-10-13T22:10:19.841Z,26.20
2022-10-13T22:20:47.542Z,23.90
2022-10-13T22:31:16.165Z,22.70
2022-10-13T22:41:43.915Z,22.60
2022-10-13T22:52:11.561Z,20.20
2022-10-13T23:02:39.268Z,22.00
2022-10-13T23:13:07.507Z,22.50
2022-10-13T23:23:35.834Z,22.30
2022-10-13T23:44:30.051Z,21.10
